Seymour, Texas
Current Conditions -  °F | °C
As of 8:16 AM on Thursday 30 Oct 2014 (Local Time) from KF05 Reporting Station
Scattered Clouds Scattered Clouds  
Wind Chill: 50°   Ceiling: Unl
Heat Index: 50°   Visibility: 10mi
Dew Point: 41°   Wind: 0mph
Humidity: 71%   Direction: NA
Pressure: 30.13"   Gusts: NA
Location:  33.59°N, 99.26°W
Report Text: KF05 301316Z AUTO 00000KT 10SM SCT060 10/05 A3013 RMK AO2
Loading
Personal Weather Stations






























Interactive Weather Map
Tropical Storm Tracking
New forecast layout! Learn more

10-Day Weather Forecast

Advertisements
Track Severe Weather on mobile